Time;durP1;ratioP1;P1;durP2;ratioP2;P2;SDS_P1;SDS_P2;PMS_P1;PMS_P2;Temp;Humidity;BMP_temperature;BMP_pressure;BME280_temperature;BME280_humidity;BME280_pressure;Samples;Min_cycle;Max_cycle;Signal;HPM_P1;HPM_P2
2021/05/16 00:02:02;;;;;;;6.13;5.45;;;10.90;99.90;;;;;;5057311;28;20779;-69
2021/05/16 00:04:28;;;;;;;5.45;5.05;;;10.90;99.90;;;;;;5058185;28;20058;-69
2021/05/16 00:07:02;;;;;;;5.22;4.82;;;11.00;99.90;;;;;;5058740;28;20079;-69
2021/05/16 00:09:29;;;;;;;5.18;4.70;;;10.90;99.90;;;;;;5053996;28;20089;-69
2021/05/16 00:11:55;;;;;;;5.38;4.97;;;10.90;99.90;;;;;;5057746;28;20041;-69
2021/05/16 00:14:21;;;;;;;6.22;4.78;;;11.00;99.90;;;;;;5057437;28;20041;-69
2021/05/16 00:16:47;;;;;;;6.15;5.57;;;11.00;99.90;;;;;;5059875;28;20032;-69
2021/05/16 00:19:13;;;;;;;6.47;5.97;;;11.00;99.90;;;;;;5059645;28;20068;-69
2021/05/16 00:21:39;;;;;;;5.95;5.38;;;11.00;99.90;;;;;;5055158;28;20064;-69
2021/05/16 00:24:05;;;;;;;6.00;5.60;;;11.00;99.90;;;;;;5059238;28;20759;-69
2021/05/16 00:26:31;;;;;;;6.25;5.60;;;11.00;99.90;;;;;;5060919;28;20398;-69
2021/05/16 00:28:56;;;;;;;7.10;6.40;;;11.00;99.90;;;;;;5055874;28;20051;-69
2021/05/16 00:31:22;;;;;;;6.78;6.10;;;11.00;99.90;;;;;;5057308;28;20071;-69
2021/05/16 00:33:48;;;;;;;7.40;6.70;;;11.10;99.90;;;;;;5058378;28;20039;-69
2021/05/16 00:36:13;;;;;;;6.65;6.03;;;11.40;99.90;;;;;;5056161;28;20037;-69
2021/05/16 00:38:39;;;;;;;6.78;6.18;;;11.10;99.90;;;;;;5057264;28;20507;-69
2021/05/16 00:41:05;;;;;;;6.90;6.40;;;11.10;99.90;;;;;;5055090;28;20041;-69
2021/05/16 00:43:31;;;;;;;7.50;6.78;;;11.20;99.90;;;;;;5054625;28;20036;-69
2021/05/16 00:45:56;;;;;;;7.95;7.25;;;11.10;99.90;;;;;;5055891;28;20109;-69
2021/05/16 00:48:22;;;;;;;6.70;6.10;;;11.10;99.90;;;;;;5058953;28;20084;-69
2021/05/16 00:50:48;;;;;;;8.18;7.43;;;11.10;99.90;;;;;;5058461;28;20044;-69
2021/05/16 00:53:22;;;;;;;7.72;6.43;;;11.10;99.90;;;;;;5055046;28;20168;-69
2021/05/16 00:55:50;;;;;;;7.43;6.75;;;11.10;99.90;;;;;;5057413;28;20044;-69
2021/05/16 00:58:16;;;;;;;7.60;6.88;;;11.10;99.90;;;;;;5057126;28;20036;-69
2021/05/16 01:00:42;;;;;;;7.53;6.93;;;11.10;99.90;;;;;;5058877;28;20086;-69
2021/05/16 01:03:09;;;;;;;8.10;7.50;;;11.10;99.90;;;;;;5058216;28;20037;-69
2021/05/16 01:05:36;;;;;;;8.57;7.75;;;11.10;99.90;;;;;;5056009;28;20036;-69
2021/05/16 01:08:03;;;;;;;7.95;7.25;;;11.10;99.90;;;;;;5056976;28;20041;-69
2021/05/16 01:10:29;;;;;;;7.82;7.03;;;11.10;99.90;;;;;;5057269;28;20119;-69
2021/05/16 01:12:55;;;;;;;8.23;7.47;;;11.10;99.90;;;;;;5052942;28;20045;-69
2021/05/16 01:15:24;;;;;;;9.05;8.15;;;11.10;99.90;;;;;;5054491;28;20131;-69
2021/05/16 01:17:51;;;;;;;9.40;8.60;;;11.10;99.90;;;;;;5054686;28;20044;-69
2021/05/16 01:20:21;;;;;;;10.18;9.48;;;11.10;99.90;;;;;;5057089;28;20044;-69
2021/05/16 01:22:52;;;;;;;10.52;9.65;;;11.10;99.90;;;;;;5057730;28;20119;-68
2021/05/16 01:25:18;;;;;;;10.02;9.13;;;11.10;99.90;;;;;;5055932;28;20068;-69
2021/05/16 01:27:45;;;;;;;12.20;11.10;;;11.10;99.90;;;;;;5056056;28;20083;-69
2021/05/16 01:30:12;;;;;;;11.65;10.75;;;11.10;99.90;;;;;;5055764;28;20032;-69
2021/05/16 01:32:37;;;;;;;11.82;10.82;;;11.20;99.90;;;;;;5055000;28;20040;-69
2021/05/16 01:35:05;;;;;;;13.20;11.93;;;11.10;99.90;;;;;;5053613;28;20041;-69
2021/05/16 01:37:31;;;;;;;12.25;11.15;;;11.10;99.90;;;;;;5056153;28;20047;-69
2021/05/16 01:39:57;;;;;;;13.23;12.23;;;11.20;99.90;;;;;;5054072;28;20056;-69
2021/05/16 01:42:25;;;;;;;14.18;12.50;;;11.10;99.90;;;;;;5054256;28;20441;-69
2021/05/16 01:44:53;;;;;;;13.00;12.00;;;11.10;99.90;;;;;;5053830;28;20115;-69
2021/05/16 01:47:20;;;;;;;14.48;13.02;;;11.10;99.90;;;;;;5053199;28;20471;-69
2021/05/16 01:49:52;;;;;;;14.60;13.30;;;11.20;99.90;;;;;;5057902;28;20052;-69
2021/05/16 01:52:18;;;;;;;15.00;13.70;;;11.10;99.90;;;;;;5052767;28;20407;-69
2021/05/16 01:54:45;;;;;;;15.05;13.73;;;11.10;99.90;;;;;;5053102;28;20047;-69
2021/05/16 01:57:11;;;;;;;16.48;15.18;;;11.10;99.90;;;;;;5053776;28;20448;-69
2021/05/16 01:59:37;;;;;;;17.60;15.98;;;11.20;99.90;;;;;;5057929;28;20046;-69
2021/05/16 02:02:04;;;;;;;17.05;15.65;;;11.20;99.90;;;;;;5056441;28;20684;-69
2021/05/16 02:04:32;;;;;;;18.25;16.75;;;11.30;99.90;;;;;;5052875;28;20044;-69
2021/05/16 02:06:59;;;;;;;18.55;16.88;;;11.20;99.90;;;;;;5054785;28;20033;-69
2021/05/16 02:09:26;;;;;;;17.88;16.38;;;11.20;99.90;;;;;;5058117;28;20380;-69
2021/05/16 02:11:51;;;;;;;17.65;16.15;;;11.20;99.90;;;;;;5052307;28;21711;-69
2021/05/16 02:14:29;;;;;;;20.25;18.40;;;11.20;99.90;;;;;;5056265;28;20036;-69
2021/05/16 02:16:57;;;;;;;19.05;17.30;;;11.20;99.90;;;;;;5056403;28;20171;-69
2021/05/16 02:19:23;;;;;;;17.52;15.85;;;11.20;99.90;;;;;;5058120;28;20044;-69
2021/05/16 02:21:50;;;;;;;19.25;17.45;;;11.30;99.90;;;;;;5059501;28;20494;-69
2021/05/16 02:24:17;;;;;;;17.40;15.80;;;11.20;99.90;;;;;;5053913;28;20045;-69
2021/05/16 02:26:42;;;;;;;18.83;17.23;;;11.10;99.90;;;;;;5055239;28;20044;-69
2021/05/16 02:29:09;;;;;;;19.00;17.17;;;11.00;99.90;;;;;;5054311;28;20049;-69
2021/05/16 02:31:35;;;;;;;19.85;18.00;;;11.00;99.90;;;;;;5060296;28;20044;-69
2021/05/16 02:34:03;;;;;;;18.95;17.35;;;11.00;99.90;;;;;;5062135;28;20056;-69
2021/05/16 02:36:28;;;;;;;18.23;16.63;;;10.90;99.90;;;;;;5064887;28;20459;-69
2021/05/16 02:38:55;;;;;;;18.45;16.80;;;10.90;99.90;;;;;;5060947;28;20131;-69
2021/05/16 02:41:21;;;;;;;18.77;16.98;;;10.90;99.90;;;;;;5060593;28;20041;-69
2021/05/16 02:43:47;;;;;;;17.75;16.08;;;11.00;99.90;;;;;;5062886;28;20060;-69
2021/05/16 02:46:13;;;;;;;18.15;16.45;;;10.90;99.90;;;;;;5062646;28;20075;-69
2021/05/16 02:48:38;;;;;;;19.45;17.60;;;11.00;99.90;;;;;;5061226;28;20076;-69
2021/05/16 02:51:05;;;;;;;17.85;16.35;;;10.90;99.90;;;;;;5064263;28;20043;-69
2021/05/16 02:53:30;;;;;;;19.80;17.90;;;10.90;99.90;;;;;;5063038;28;20045;-69
2021/05/16 02:55:56;;;;;;;19.27;17.38;;;10.90;99.90;;;;;;5060484;28;20044;-69
2021/05/16 02:58:22;;;;;;;19.38;16.80;;;10.90;99.90;;;;;;5063251;28;20380;-69
2021/05/16 03:00:48;;;;;;;23.10;17.83;;;11.00;99.90;;;;;;5065323;28;20063;-69
2021/05/16 03:03:13;;;;;;;18.30;16.42;;;11.00;99.90;;;;;;5063844;28;20036;-69
2021/05/16 03:05:39;;;;;;;17.83;16.02;;;10.90;99.90;;;;;;5060424;28;20036;-69
2021/05/16 03:08:05;;;;;;;18.05;16.38;;;10.90;99.90;;;;;;5060951;28;20048;-69
2021/05/16 03:10:31;;;;;;;18.70;16.85;;;11.00;99.90;;;;;;5061393;28;20119;-69
2021/05/16 03:12:57;;;;;;;18.95;17.05;;;10.80;99.90;;;;;;5065949;28;20106;-69
2021/05/16 03:15:23;;;;;;;19.08;16.98;;;10.80;99.90;;;;;;5067218;28;20043;-69
2021/05/16 03:17:48;;;;;;;20.60;16.73;;;10.80;99.90;;;;;;5059822;28;20044;-69
2021/05/16 03:20:15;;;;;;;22.23;17.92;;;10.80;99.90;;;;;;5054604;28;20039;-69
2021/05/16 03:22:41;;;;;;;18.58;16.77;;;10.70;99.90;;;;;;5059034;28;20040;-69
2021/05/16 03:25:09;;;;;;;21.40;16.75;;;10.70;99.90;;;;;;5060269;28;20552;-69
2021/05/16 03:27:35;;;;;;;21.02;17.25;;;10.70;99.90;;;;;;5059866;28;20090;-69
2021/05/16 03:30:01;;;;;;;19.48;17.48;;;10.70;99.90;;;;;;5059464;28;20040;-69
2021/05/16 03:32:26;;;;;;;20.60;18.40;;;10.70;99.90;;;;;;5060027;28;20051;-69
2021/05/16 03:34:52;;;;;;;18.42;16.63;;;10.70;99.90;;;;;;5057008;28;20040;-69
2021/05/16 03:37:18;;;;;;;23.65;19.08;;;10.70;99.90;;;;;;5060529;28;20632;-69
2021/05/16 03:39:44;;;;;;;23.40;18.08;;;10.70;99.90;;;;;;5057448;28;20041;-69
2021/05/16 03:42:10;;;;;;;24.02;18.02;;;10.70;99.90;;;;;;5057132;28;20047;-69
2021/05/16 03:44:36;;;;;;;21.33;18.27;;;10.80;99.90;;;;;;5056784;28;20120;-69
2021/05/16 03:47:02;;;;;;;21.40;18.30;;;10.70;99.90;;;;;;5059964;28;20044;-69
2021/05/16 03:49:28;;;;;;;23.73;18.27;;;10.70;99.90;;;;;;5057962;28;20497;-69
2021/05/16 03:51:54;;;;;;;24.38;20.02;;;10.60;99.90;;;;;;5056924;28;20109;-69
2021/05/16 03:54:19;;;;;;;25.20;20.45;;;10.60;99.90;;;;;;5055308;28;21524;-69
2021/05/16 03:56:45;;;;;;;22.58;19.65;;;10.50;99.90;;;;;;5086287;28;20057;-69
2021/05/16 03:59:11;;;;;;;26.92;21.02;;;10.60;99.90;;;;;;5057024;28;20505;-69
2021/05/16 04:01:37;;;;;;;25.00;20.77;;;10.60;99.90;;;;;;5055734;28;20041;-69
2021/05/16 04:04:04;;;;;;;31.90;21.25;;;10.50;99.90;;;;;;5056572;28;20506;-69
2021/05/16 04:06:29;;;;;;;32.03;20.95;;;10.60;99.90;;;;;;5056301;28;20032;-69
2021/05/16 04:08:55;;;;;;;32.22;22.83;;;10.60;99.90;;;;;;5056416;28;20055;-69
2021/05/16 04:11:21;;;;;;;30.85;21.60;;;10.70;99.90;;;;;;5053698;28;20048;-69
2021/05/16 04:13:47;;;;;;;26.27;20.33;;;10.60;99.90;;;;;;5058707;28;20056;-69
2021/05/16 04:16:13;;;;;;;29.23;21.77;;;10.60;99.90;;;;;;5060990;28;21153;-69
2021/05/16 04:18:39;;;;;;;30.13;21.17;;;10.70;99.90;;;;;;5057520;28;20044;-69
2021/05/16 04:21:05;;;;;;;31.65;21.52;;;10.70;99.90;;;;;;5056046;28;20045;-69
2021/05/16 04:23:32;;;;;;;28.75;21.55;;;10.70;99.90;;;;;;5051658;28;20041;-69
2021/05/16 04:25:58;;;;;;;35.75;21.08;;;10.60;99.90;;;;;;5054423;28;20067;-69
2021/05/16 04:28:23;;;;;;;24.08;19.88;;;10.70;99.90;;;;;;5052666;28;20255;-69
2021/05/16 04:30:49;;;;;;;26.70;19.88;;;10.70;99.90;;;;;;5055897;28;20040;-69
2021/05/16 04:33:15;;;;;;;25.88;19.88;;;10.60;99.90;;;;;;5056951;28;20028;-69
2021/05/16 04:35:41;;;;;;;29.67;19.80;;;10.60;99.90;;;;;;5055398;28;20530;-69
2021/05/16 04:38:07;;;;;;;27.95;19.75;;;10.60;99.90;;;;;;5059719;28;20960;-69
2021/05/16 04:40:33;;;;;;;27.05;19.05;;;10.60;99.90;;;;;;5055325;28;20041;-69
2021/05/16 04:42:59;;;;;;;28.52;18.88;;;10.70;99.90;;;;;;5055678;28;20040;-69
2021/05/16 04:45:25;;;;;;;27.95;18.42;;;10.70;99.90;;;;;;5058076;28;20047;-69
2021/05/16 04:47:51;;;;;;;27.60;20.23;;;10.70;99.90;;;;;;5054424;28;20565;-69
2021/05/16 04:50:18;;;;;;;25.55;18.90;;;10.70;99.90;;;;;;5056475;28;20124;-69
2021/05/16 04:52:45;;;;;;;21.45;18.50;;;10.70;99.90;;;;;;5054684;28;20502;-69
2021/05/16 04:55:12;;;;;;;23.48;18.45;;;10.70;99.90;;;;;;5055944;28;20037;-69
2021/05/16 04:57:38;;;;;;;26.27;18.30;;;10.80;99.90;;;;;;5055036;28;20040;-69
2021/05/16 05:00:05;;;;;;;24.52;19.38;;;10.80;99.90;;;;;;5053938;28;20056;-69
2021/05/16 05:02:33;;;;;;;23.83;18.40;;;11.00;99.90;;;;;;5053727;28;20047;-69
2021/05/16 05:04:59;;;;;;;26.75;19.38;;;11.00;99.90;;;;;;5057611;28;20052;-69
2021/05/16 05:07:24;;;;;;;23.88;18.67;;;11.00;99.90;;;;;;5058129;28;20040;-69
2021/05/16 05:09:50;;;;;;;24.15;19.08;;;11.00;99.90;;;;;;5055011;28;20041;-69
2021/05/16 05:12:16;;;;;;;21.35;18.80;;;11.10;99.90;;;;;;5056639;28;20093;-69
2021/05/16 05:14:41;;;;;;;25.25;19.45;;;11.10;99.90;;;;;;5055234;28;20047;-69
2021/05/16 05:17:07;;;;;;;25.10;20.05;;;11.10;99.90;;;;;;5055093;28;20033;-69
2021/05/16 05:19:33;;;;;;;26.88;19.17;;;11.20;99.90;;;;;;5060320;28;20051;-69
2021/05/16 05:21:58;;;;;;;28.75;19.63;;;11.30;99.90;;;;;;5054649;28;20047;-69
2021/05/16 05:24:24;;;;;;;26.58;19.58;;;11.30;99.90;;;;;;5055530;28;20040;-69
2021/05/16 05:26:50;;;;;;;23.58;19.25;;;11.30;99.90;;;;;;5057295;28;20071;-69
2021/05/16 05:29:17;;;;;;;30.77;20.02;;;11.30;99.90;;;;;;5054530;28;22318;-69
2021/05/16 05:31:45;;;;;;;24.38;18.33;;;11.30;99.90;;;;;;5055606;28;20048;-69
2021/05/16 05:34:11;;;;;;;26.67;19.88;;;11.30;99.90;;;;;;5056302;28;20037;-70
2021/05/16 05:36:37;;;;;;;25.13;18.13;;;11.40;99.90;;;;;;5055455;28;20073;-69
2021/05/16 05:39:05;;;;;;;24.48;19.02;;;11.40;99.90;;;;;;5052607;28;20609;-69
2021/05/16 05:41:31;;;;;;;21.50;17.23;;;11.50;99.90;;;;;;5055198;28;20115;-70
2021/05/16 05:43:57;;;;;;;23.63;17.73;;;11.50;99.90;;;;;;5058468;28;20048;-70
2021/05/16 05:46:23;;;;;;;24.58;17.05;;;11.60;99.90;;;;;;5055180;28;20047;-71
2021/05/16 05:48:49;;;;;;;27.42;18.05;;;11.80;99.90;;;;;;5058901;28;20095;-70
2021/05/16 05:51:14;;;;;;;23.92;15.73;;;11.80;99.90;;;;;;5062570;28;20113;-70
2021/05/16 05:53:41;;;;;;;24.13;17.83;;;11.80;99.90;;;;;;5058131;28;20040;-70
2021/05/16 05:56:07;;;;;;;25.02;16.98;;;11.80;99.90;;;;;;5055748;28;20041;-70
2021/05/16 05:58:35;;;;;;;22.55;17.25;;;11.90;99.90;;;;;;5055664;28;20032;-69
2021/05/16 06:01:02;;;;;;;25.05;16.20;;;11.90;99.90;;;;;;5053404;28;20062;-70
2021/05/16 06:03:28;;;;;;;24.35;17.20;;;12.00;99.90;;;;;;5059529;28;20094;-69
2021/05/16 06:05:54;;;;;;;19.65;15.73;;;12.00;99.90;;;;;;5058513;28;20029;-69
2021/05/16 06:08:19;;;;;;;22.73;16.50;;;12.00;99.90;;;;;;5055649;28;20835;-70
2021/05/16 06:10:45;;;;;;;24.70;17.80;;;12.00;99.90;;;;;;5058536;28;20051;-70
2021/05/16 06:13:11;;;;;;;23.92;16.67;;;12.00;99.90;;;;;;5056467;28;20042;-70
2021/05/16 06:15:37;;;;;;;21.88;15.48;;;12.00;99.90;;;;;;5061968;28;20119;-69
2021/05/16 06:18:03;;;;;;;26.27;18.00;;;12.00;99.90;;;;;;5054971;28;20526;-69
2021/05/16 06:20:30;;;;;;;18.73;15.10;;;11.90;99.90;;;;;;5060986;28;20048;-69
2021/05/16 06:22:56;;;;;;;25.70;18.25;;;12.00;99.90;;;;;;5058940;28;20119;-70
2021/05/16 06:25:22;;;;;;;25.13;16.27;;;12.10;99.90;;;;;;5058676;28;20067;-69
2021/05/16 06:27:48;;;;;;;22.35;16.33;;;12.10;99.90;;;;;;5061905;28;20044;-69
2021/05/16 06:30:16;;;;;;;26.42;17.50;;;12.20;99.90;;;;;;5058856;28;20120;-69
2021/05/16 06:32:42;;;;;;;27.40;17.67;;;12.20;99.90;;;;;;5061923;28;20037;-69
2021/05/16 06:35:09;;;;;;;23.52;16.75;;;12.20;99.90;;;;;;5052725;28;20032;-69
2021/05/16 06:37:35;;;;;;;26.02;18.27;;;12.30;99.90;;;;;;5055094;28;20068;-69
2021/05/16 06:40:02;;;;;;;25.58;16.38;;;12.50;99.90;;;;;;5055148;28;20044;-69
2021/05/16 06:42:28;;;;;;;26.80;16.08;;;12.50;99.90;;;;;;5056380;28;20051;-69
2021/05/16 06:44:54;;;;;;;20.60;14.15;;;12.60;99.90;;;;;;5055362;28;20040;-70
2021/05/16 06:47:21;;;;;;;23.23;14.00;;;12.60;99.90;;;;;;5058434;28;20119;-69
2021/05/16 06:49:52;;;;;;;23.88;13.18;;;12.60;99.90;;;;;;5059528;28;20049;-70
2021/05/16 06:52:19;;;;;;;17.75;10.93;;;12.70;99.90;;;;;;5062721;28;20044;-70
2021/05/16 06:54:45;;;;;;;18.77;12.13;;;12.80;99.90;;;;;;5058460;28;20049;-70
2021/05/16 06:57:11;;;;;;;16.92;12.02;;;12.80;99.90;;;;;;5060935;28;20047;-70
2021/05/16 06:59:37;;;;;;;19.33;11.18;;;12.80;99.90;;;;;;5059420;28;20047;-70
2021/05/16 07:02:02;;;;;;;20.77;12.40;;;12.80;99.90;;;;;;5060207;28;20539;-70
2021/05/16 07:04:28;;;;;;;22.52;12.63;;;13.00;99.90;;;;;;5060190;28;20037;-70
2021/05/16 07:06:54;;;;;;;17.20;10.05;;;13.00;99.90;;;;;;5057993;28;20261;-70
2021/05/16 07:09:20;;;;;;;18.52;9.80;;;12.90;99.90;;;;;;5054792;28;20120;-69
2021/05/16 07:11:46;;;;;;;13.98;8.48;;;12.90;99.90;;;;;;5057823;28;20052;-70
2021/05/16 07:14:12;;;;;;;21.40;9.75;;;12.90;99.90;;;;;;5057863;28;20037;-69
2021/05/16 07:16:38;;;;;;;18.38;9.63;;;12.90;99.90;;;;;;5056610;28;20052;-69
2021/05/16 07:19:04;;;;;;;23.65;11.82;;;12.80;99.90;;;;;;5057871;28;20146;-69
2021/05/16 07:21:29;;;;;;;17.27;10.07;;;12.80;99.90;;;;;;5057738;28;20040;-70
2021/05/16 07:23:55;;;;;;;14.93;9.32;;;12.90;99.90;;;;;;5054535;28;20472;-70
2021/05/16 07:26:22;;;;;;;18.77;10.07;;;13.00;99.90;;;;;;5058019;28;20033;-69
2021/05/16 07:28:48;;;;;;;19.35;9.88;;;13.20;99.90;;;;;;5057105;28;20043;-70
2021/05/16 07:31:18;;;;;;;16.40;9.35;;;13.30;99.90;;;;;;5056375;28;20056;-70
2021/05/16 07:33:44;;;;;;;17.27;9.00;;;13.20;99.90;;;;;;5060297;28;20048;-70
2021/05/16 07:36:10;;;;;;;18.88;8.85;;;13.20;99.90;;;;;;5084449;27;20040;-69
2021/05/16 07:38:36;;;;;;;19.48;8.20;;;13.20;99.90;;;;;;5060476;28;20132;-70
2021/05/16 07:41:02;;;;;;;19.92;7.85;;;13.10;99.90;;;;;;5056826;28;20502;-70
2021/05/16 07:43:28;;;;;;;14.80;7.30;;;13.20;99.90;;;;;;5058507;28;20445;-70
2021/05/16 07:46:01;;;;;;;18.13;7.22;;;13.30;99.40;;;;;;5058926;28;20037;-70
2021/05/16 07:48:29;;;;;;;12.95;5.75;;;13.50;99.30;;;;;;5059125;28;20130;-70
2021/05/16 07:50:57;;;;;;;19.13;5.70;;;13.60;98.50;;;;;;5059563;28;20082;-70
2021/05/16 07:53:23;;;;;;;13.48;6.15;;;13.70;98.70;;;;;;5087210;27;20036;-70
2021/05/16 07:55:49;;;;;;;13.48;6.55;;;13.90;98.10;;;;;;5057290;28;20474;-70
2021/05/16 07:58:15;;;;;;;12.82;6.60;;;13.80;97.90;;;;;;5057355;28;20052;-70
2021/05/16 08:00:47;;;;;;;14.70;7.68;;;13.90;97.90;;;;;;5056899;28;20075;-70
2021/05/16 08:03:14;;;;;;;15.45;5.50;;;13.80;98.00;;;;;;5056151;28;20045;-70
2021/05/16 08:05:40;;;;;;;18.05;5.47;;;13.70;97.80;;;;;;5054841;28;20451;-70
2021/05/16 08:08:06;;;;;;;13.20;5.93;;;13.70;98.10;;;;;;5057982;28;20473;-70
2021/05/16 08:10:32;;;;;;;12.35;4.75;;;13.80;98.30;;;;;;5055646;28;20065;-69
2021/05/16 08:12:57;;;;;;;12.70;5.40;;;13.90;97.30;;;;;;5057315;28;20098;-70
2021/05/16 08:15:25;;;;;;;11.68;4.75;;;14.00;97.90;;;;;;5059520;28;20044;-70
2021/05/16 08:17:52;;;;;;;18.25;6.20;;;13.80;97.90;;;;;;5053909;28;20119;-70
2021/05/16 08:20:17;;;;;;;15.77;6.80;;;13.60;98.70;;;;;;5057376;28;20044;-70
2021/05/16 08:22:43;;;;;;;16.92;6.80;;;13.50;99.50;;;;;;5058911;28;20044;-70
2021/05/16 08:25:11;;;;;;;18.00;5.57;;;13.40;99.10;;;;;;5057122;28;20039;-71
2021/05/16 08:27:39;;;;;;;10.02;4.57;;;13.20;99.30;;;;;;5058151;28;20041;-71
2021/05/16 08:30:06;;;;;;;14.50;5.43;;;13.20;99.60;;;;;;5054839;28;20037;-71
2021/05/16 08:32:31;;;;;;;16.33;6.57;;;13.10;99.90;;;;;;5053892;28;20040;-71
2021/05/16 08:34:58;;;;;;;10.35;4.63;;;13.00;99.90;;;;;;5053530;28;20858;-71
2021/05/16 08:37:24;;;;;;;7.70;3.45;;;12.90;99.90;;;;;;5055757;28;20091;-71
2021/05/16 08:39:50;;;;;;;12.10;4.57;;;12.90;99.90;;;;;;5054427;28;20060;-71
2021/05/16 08:42:17;;;;;;;11.23;4.80;;;12.80;99.90;;;;;;5088394;28;20104;-71
2021/05/16 08:44:43;;;;;;;11.27;4.65;;;12.70;99.90;;;;;;5057953;28;20037;-71
2021/05/16 08:47:10;;;;;;;11.23;5.88;;;12.60;99.90;;;;;;5055716;28;20052;-71
2021/05/16 08:49:36;;;;;;;15.63;5.50;;;12.40;99.90;;;;;;5055100;28;20290;-71
2021/05/16 08:52:02;;;;;;;16.13;5.57;;;12.40;99.90;;;;;;5056638;28;20535;-70
2021/05/16 08:54:28;;;;;;;8.13;3.75;;;12.30;99.90;;;;;;5053711;28;20040;-71
2021/05/16 08:56:55;;;;;;;15.15;3.78;;;12.20;99.90;;;;;;5052673;28;20040;-70
2021/05/16 08:59:23;;;;;;;9.20;3.92;;;12.10;99.90;;;;;;5055131;28;20044;-71
2021/05/16 09:01:52;;;;;;;9.50;3.80;;;12.00;99.90;;;;;;5057705;28;20101;-70
2021/05/16 09:04:33;;;;;;;8.93;3.75;;;12.00;99.90;;;;;;5060752;28;20525;-71
2021/05/16 09:06:58;;;;;;;10.27;3.83;;;12.00;99.90;;;;;;5053176;28;20040;-71
2021/05/16 09:09:41;;;;;;;7.97;3.70;;;12.00;99.90;;;;;;5052936;28;20082;-71
2021/05/16 09:12:15;;;;;;;10.63;4.38;;;12.10;99.90;;;;;;5056061;28;20040;-71
2021/05/16 09:14:47;;;;;;;11.65;3.85;;;12.10;99.90;;;;;;5054891;28;20036;-71
2021/05/16 09:17:35;;;;;;;10.00;4.32;;;12.20;99.90;;;;;;5051859;28;20039;-71
2021/05/16 09:20:06;;;;;;;7.70;4.28;;;12.30;99.90;;;;;;5058483;28;20041;-71
2021/05/16 09:22:49;;;;;;;8.07;2.40;;;12.60;99.90;;;;;;5052757;28;20171;-71
2021/05/16 09:25:19;;;;;;;6.93;2.50;;;13.00;99.90;;;;;;5055589;28;20450;-71
2021/05/16 09:27:47;;;;;;;4.10;1.98;;;13.30;99.90;;;;;;5057034;28;20036;-71
2021/05/16 09:30:16;;;;;;;3.60;1.92;;;13.70;99.90;;;;;;5090455;27;20558;-71
2021/05/16 09:32:49;;;;;;;6.18;2.70;;;13.90;99.80;;;;;;5083265;27;20090;-71
2021/05/16 09:35:17;;;;;;;4.97;2.00;;;14.00;99.90;;;;;;5054193;28;20053;-71
2021/05/16 09:38:08;;;;;;;2.97;1.63;;;14.20;99.90;;;;;;5054683;28;20041;-71
2021/05/16 09:40:40;;;;;;;2.05;1.30;;;14.30;99.90;;;;;;5051785;28;20040;-71
2021/05/16 09:43:14;;;;;;;3.17;1.10;;;14.50;99.90;;;;;;5055639;28;20036;-71
2021/05/16 09:45:41;;;;;;;2.85;1.20;;;14.70;99.90;;;;;;5051897;28;20033;-71
2021/05/16 09:48:18;;;;;;;2.38;0.50;;;14.90;99.90;;;;;;5054701;28;20453;-71
2021/05/16 09:50:44;;;;;;;0.68;0.40;;;15.20;99.90;;;;;;5056564;28;20124;-71
2021/05/16 09:53:10;;;;;;;3.20;0.52;;;15.60;98.30;;;;;;5056984;28;20179;-71
2021/05/16 09:55:37;;;;;;;3.65;0.60;;;15.80;97.40;;;;;;5057793;28;20033;-71
2021/05/16 09:58:03;;;;;;;1.30;0.50;;;16.00;96.30;;;;;;5054936;28;20049;-71
2021/05/16 10:00:30;;;;;;;1.60;0.50;;;15.90;95.10;;;;;;5057311;28;20041;-71
2021/05/16 10:02:55;;;;;;;1.85;0.60;;;15.90;95.90;;;;;;5057643;28;20036;-71
2021/05/16 10:05:21;;;;;;;4.40;1.20;;;15.80;95.60;;;;;;5056261;28;20098;-71
2021/05/16 10:07:47;;;;;;;2.97;0.80;;;15.50;95.90;;;;;;5058670;28;20083;-71
2021/05/16 10:10:13;;;;;;;2.35;0.75;;;15.40;96.50;;;;;;5058063;28;20474;-71
2021/05/16 10:12:42;;;;;;;3.95;0.60;;;15.10;95.50;;;;;;5053454;28;20064;-71
2021/05/16 10:15:17;;;;;;;1.98;0.60;;;15.00;96.90;;;;;;5057796;28;20044;-71
2021/05/16 10:17:51;;;;;;;3.20;1.10;;;14.90;97.80;;;;;;5055587;28;20045;-74
2021/05/16 10:20:27;;;;;;;1.83;0.60;;;14.90;98.60;;;;;;5056687;28;20037;-71
2021/05/16 10:22:54;;;;;;;1.77;0.45;;;15.00;98.60;;;;;;5059236;28;20079;-71
2021/05/16 10:25:38;;;;;;;1.35;0.70;;;15.00;97.60;;;;;;5062398;28;20048;-71
2021/05/16 10:28:04;;;;;;;3.67;1.15;;;15.00;97.20;;;;;;5062053;28;20110;-71
2021/05/16 10:30:30;;;;;;;1.55;0.40;;;15.00;97.80;;;;;;5059615;28;20111;-71
2021/05/16 10:32:55;;;;;;;1.65;0.30;;;15.00;96.60;;;;;;5061311;28;20040;-71
2021/05/16 10:35:23;;;;;;;2.03;0.45;;;14.90;96.80;;;;;;5059126;28;20502;-71
2021/05/16 10:37:55;;;;;;;3.80;0.80;;;14.80;96.70;;;;;;5058063;28;20047;-71
2021/05/16 10:40:31;;;;;;;5.45;1.10;;;14.70;97.10;;;;;;5063481;28;20040;-72
2021/05/16 10:43:22;;;;;;;2.67;0.65;;;14.70;96.50;;;;;;5058158;28;20036;-71
2021/05/16 10:45:47;;;;;;;3.95;0.95;;;14.30;96.90;;;;;;5057696;28;20045;-71
2021/05/16 10:48:28;;;;;;;11.60;1.58;;;14.00;97.80;;;;;;5060387;28;20045;-71
2021/05/16 10:50:59;;;;;;;5.63;1.10;;;13.60;97.80;;;;;;5062327;28;20502;-71
2021/05/16 10:53:39;;;;;;;8.32;1.25;;;13.30;97.90;;;;;;5059892;28;20039;-71
2021/05/16 10:56:19;;;;;;;5.28;1.70;;;13.10;98.80;;;;;;5057335;28;20036;-71
2021/05/16 10:58:50;;;;;;;5.90;1.50;;;12.90;99.50;;;;;;5059932;28;20840;-71
2021/05/16 11:01:18;;;;;;;5.38;1.25;;;12.80;99.90;;;;;;5058858;28;20492;-71
2021/05/16 11:03:53;;;;;;;6.55;1.60;;;12.80;99.90;;;;;;5058023;28;20044;-71
2021/05/16 11:06:24;;;;;;;7.45;1.63;;;12.80;99.90;;;;;;5057727;28;20032;-71
2021/05/16 11:08:50;;;;;;;4.80;0.93;;;12.90;99.90;;;;;;5058521;28;20082;-71
2021/05/16 11:11:29;;;;;;;5.78;1.20;;;13.00;99.90;;;;;;5062603;28;20041;-71
2021/05/16 11:13:56;;;;;;;6.35;1.38;;;13.10;99.90;;;;;;5061928;28;20034;-71
2021/05/16 11:16:21;;;;;;;4.70;0.98;;;13.20;99.90;;;;;;5093012;27;20364;-71
2021/05/16 11:18:47;;;;;;;4.65;0.95;;;13.40;99.90;;;;;;5062384;28;20095;-71
2021/05/16 11:21:14;;;;;;;2.28;0.63;;;13.50;99.90;;;;;;5060004;28;20091;-71
2021/05/16 11:23:40;;;;;;;4.60;0.60;;;13.70;99.90;;;;;;5062832;28;20523;-71
2021/05/16 11:26:11;;;;;;;3.40;0.82;;;13.80;99.40;;;;;;5057491;28;20321;-71
2021/05/16 11:28:39;;;;;;;3.95;0.65;;;14.00;99.90;;;;;;5062253;28;20045;-71
2021/05/16 11:31:13;;;;;;;2.33;0.52;;;14.30;99.90;;;;;;5085111;28;20049;-72
2021/05/16 11:33:41;;;;;;;4.38;0.82;;;14.60;99.90;;;;;;5059179;28;20643;-71
2021/05/16 11:36:11;;;;;;;5.30;0.75;;;15.10;98.40;;;;;;5061883;28;20052;-71
2021/05/16 11:38:41;;;;;;;5.85;0.70;;;15.20;98.90;;;;;;5061456;28;20162;-71
2021/05/16 11:41:08;;;;;;;2.55;0.95;;;15.50;98.30;;;;;;5062465;28;20068;-71
2021/05/16 11:43:44;;;;;;;2.72;0.43;;;15.50;96.90;;;;;;5059046;28;20119;-71
2021/05/16 11:46:11;;;;;;;3.08;0.80;;;15.60;97.00;;;;;;5053491;28;20051;-71
2021/05/16 11:48:41;;;;;;;5.53;0.70;;;15.70;96.80;;;;;;5061218;28;20078;-72
2021/05/16 11:51:15;;;;;;;3.50;0.80;;;15.70;95.90;;;;;;5057956;28;20036;-71
2021/05/16 11:53:43;;;;;;;8.02;0.75;;;15.70;95.00;;;;;;5057808;28;20044;-72
2021/05/16 11:56:20;;;;;;;4.03;0.70;;;15.70;96.10;;;;;;5057043;28;20033;-71
2021/05/16 11:58:51;;;;;;;4.18;0.85;;;15.70;96.10;;;;;;5057791;28;20071;-71
2021/05/16 12:01:20;;;;;;;2.83;0.93;;;16.00;95.60;;;;;;5057432;28;20055;-71
2021/05/16 12:04:19;;;;;;;5.22;1.27;;;16.30;95.90;;;;;;5057943;28;20418;-71
2021/05/16 12:06:54;;;;;;;7.15;1.00;;;16.60;94.50;;;;;;5054999;28;20540;-71
2021/05/16 12:09:25;;;;;;;5.57;0.90;;;16.60;93.00;;;;;;5062376;28;20441;-71
2021/05/16 12:11:55;;;;;;;3.13;0.60;;;16.50;93.10;;;;;;5058326;28;20044;-71
2021/05/16 12:14:26;;;;;;;4.63;1.02;;;16.50;92.60;;;;;;5058528;28;20482;-71
2021/05/16 12:17:02;;;;;;;3.80;0.80;;;16.20;91.90;;;;;;5056047;28;20033;-72
2021/05/16 12:19:30;;;;;;;6.15;1.08;;;15.80;93.00;;;;;;5059101;28;20033;-71
2021/05/16 12:21:59;;;;;;;5.78;0.90;;;15.70;93.80;;;;;;5089515;27;20040;-71
2021/05/16 12:24:30;;;;;;;4.15;1.20;;;15.40;94.10;;;;;;5055684;28;20189;-71
2021/05/16 12:26:57;;;;;;;6.20;1.20;;;15.30;94.60;;;;;;5054560;28;20044;-72
2021/05/16 12:29:23;;;;;;;3.30;0.65;;;15.10;93.90;;;;;;5057182;28;20048;-71
2021/05/16 12:31:50;;;;;;;5.57;1.00;;;14.90;93.60;;;;;;5056245;28;20406;-71
2021/05/16 12:34:17;;;;;;;3.05;0.75;;;14.70;94.50;;;;;;5053878;28;20421;-71
2021/05/16 12:36:51;;;;;;;5.15;0.95;;;14.40;94.20;;;;;;5056126;28;20040;-71
2021/05/16 12:39:38;;;;;;;4.03;0.63;;;14.10;95.20;;;;;;5058505;28;20725;-71